North Berwick, Maine
Current Conditions -  °F | °C
As of 10:55 PM on Saturday 20 Dec 2014 (Local Time) from KSFM Reporting Station
Overcast Overcast  
Wind Chill: 12°   Ceiling: 900
Heat Index: 21°   Visibility: 10mi
Dew Point: 16°   Wind: 8mph
Humidity: 80%   Direction: 10°N
Pressure: 30.34"   Gusts: NA
Location:  43.3°N, 70.73°W
Report Text: KSFM 210355Z AUTO 01007KT 10SM OVC009 M06/M09 A3034 RMK AO1
Loading
Personal Weather Stations






























Interactive Weather Map New forecast layout! Learn more

10-Day Weather Forecast

Advertisements
Track Severe Weather on mobile